createdAt,value
2023-07-01T00:01:46.202Z,6.50
2023-07-01T00:06:49.177Z,6.70
2023-07-01T00:11:55.167Z,7.20
2023-07-01T00:16:58.168Z,7.40
2023-07-01T00:22:01.173Z,7.50
2023-07-01T00:27:05.363Z,7.10
2023-07-01T00:32:08.932Z,7.60
2023-07-01T00:37:11.962Z,7.60
2023-07-01T00:42:16.223Z,7.60
2023-07-01T00:47:19.333Z,7.30
2023-07-01T00:52:22.451Z,7.90
2023-07-01T00:57:25.428Z,8.90
2023-07-01T01:02:38.711Z,8.20
2023-07-01T01:07:44.905Z,8.20
2023-07-01T01:12:51.002Z,7.50
2023-07-01T01:17:58.493Z,8.10
2023-07-01T01:23:15.493Z,8.00
2023-07-01T01:28:21.796Z,9.00
2023-07-01T01:33:24.799Z,9.10
2023-07-01T01:38:34.717Z,9.10
2023-07-01T01:43:49.791Z,8.80
2023-07-01T01:48:57.683Z,8.90
2023-07-01T01:54:04.887Z,9.40
2023-07-01T01:59:08.872Z,9.20
2023-07-01T02:04:15.118Z,9.70
2023-07-01T02:09:18.917Z,9.30
2023-07-01T02:14:23.210Z,9.50
2023-07-01T02:19:26.182Z,9.50
2023-07-01T02:24:29.141Z,9.30
2023-07-01T02:29:34.077Z,10.00
2023-07-01T02:34:37.107Z,10.40
2023-07-01T02:39:40.873Z,9.40
2023-07-01T02:44:43.985Z,10.00
2023-07-01T02:49:49.415Z,9.80
2023-07-01T02:54:52.687Z,11.00
2023-07-01T02:59:57.317Z,10.30
2023-07-01T03:05:01.572Z,10.10
2023-07-01T03:10:05.157Z,10.80
2023-07-01T03:15:10.293Z,10.70
2023-07-01T03:20:24.219Z,10.20
2023-07-01T03:25:28.537Z,10.90
2023-07-01T03:30:32.554Z,11.60
2023-07-01T03:35:38.392Z,11.50
2023-07-01T03:40:42.008Z,12.30
2023-07-01T03:45:45.121Z,11.90
2023-07-01T03:50:48.509Z,11.30
2023-07-01T03:55:54.997Z,11.60
2023-07-01T04:00:58.261Z,11.80
2023-07-01T04:06:01.700Z,12.50
2023-07-01T04:11:05.339Z,12.90
2023-07-01T04:16:10.982Z,12.40
2023-07-01T04:21:13.969Z,12.40
2023-07-01T04:26:16.921Z,12.80
2023-07-01T04:31:20.614Z,13.00
2023-07-01T04:36:23.701Z,14.30
2023-07-01T04:41:26.697Z,13.00
2023-07-01T04:46:33.038Z,13.20
2023-07-01T04:51:37.628Z,11.70
2023-07-01T04:56:40.653Z,11.80
2023-07-01T05:01:43.745Z,10.70
2023-07-01T05:06:46.766Z,11.50
2023-07-01T05:11:52.674Z,11.80
2023-07-01T05:16:55.800Z,10.10
2023-07-01T05:21:58.943Z,9.90
2023-07-01T05:27:05.236Z,10.20
2023-07-01T05:32:08.813Z,10.40
2023-07-01T05:37:12.359Z,21.80
2023-07-01T05:42:15.335Z,14.40
2023-07-01T05:47:18.297Z,10.50
2023-07-01T05:52:22.348Z,10.10
2023-07-01T05:57:25.298Z,10.50
2023-07-01T06:02:29.256Z,11.00
2023-07-01T06:07:32.314Z,10.80
2023-07-01T06:12:36.397Z,10.80
2023-07-01T06:17:39.552Z,10.60
2023-07-01T06:22:42.679Z,10.80
2023-07-01T06:27:45.651Z,11.20
2023-07-01T06:32:48.727Z,10.50
2023-07-01T06:37:54.777Z,10.50
2023-07-01T06:42:59.916Z,21.10
2023-07-01T06:48:02.953Z,13.00
2023-07-01T06:53:06.155Z,10.20
2023-07-01T06:58:12.331Z,9.40
2023-07-01T07:03:18.007Z,9.40
2023-07-01T07:08:24.367Z,9.00
2023-07-01T07:13:27.364Z,8.10
2023-07-01T07:18:30.501Z,8.20
2023-07-01T07:23:33.603Z,9.30
2023-07-01T07:28:39.524Z,8.40
2023-07-01T07:33:42.543Z,9.70
2023-07-01T07:38:45.493Z,9.40
2023-07-01T07:43:49.275Z,8.80
2023-07-01T07:48:52.249Z,7.90
2023-07-01T07:53:55.806Z,9.10
2023-07-01T07:58:58.800Z,7.80
2023-07-01T08:04:02.040Z,8.70
2023-07-01T08:09:05.075Z,9.50
2023-07-01T08:14:08.167Z,9.70
2023-07-01T08:19:11.626Z,8.70
2023-07-01T08:24:15.729Z,8.90
2023-07-01T08:29:19.353Z,8.80
2023-07-01T08:34:22.421Z,9.50
2023-07-01T08:39:26.354Z,9.40
2023-07-01T08:44:30.238Z,9.00
2023-07-01T08:49:35.603Z,9.80
2023-07-01T08:54:41.997Z,9.50
2023-07-01T08:59:45.076Z,8.90
2023-07-01T09:04:48.113Z,9.40
2023-07-01T09:09:52.282Z,12.30
2023-07-01T09:15:06.498Z,12.60
2023-07-01T09:20:14.219Z,12.60
2023-07-01T09:25:28.882Z,11.40
2023-07-01T09:30:32.037Z,12.10
2023-07-01T09:35:43.825Z,12.80
2023-07-01T09:40:47.305Z,13.30
2023-07-01T09:45:55.494Z,13.80
2023-07-01T09:51:07.234Z,12.70
2023-07-01T09:56:14.244Z,12.80
2023-07-01T10:01:19.630Z,12.10
2023-07-01T10:06:25.423Z,13.20
2023-07-01T10:11:29.609Z,15.10
2023-07-01T10:16:47.216Z,13.90
2023-07-01T10:21:51.029Z,18.00
2023-07-01T10:26:54.029Z,13.10
2023-07-01T10:32:14.882Z,13.40
2023-07-01T10:37:19.951Z,14.70
2023-07-01T10:42:34.797Z,14.40
2023-07-01T10:47:38.698Z,12.90
2023-07-01T10:52:58.959Z,14.80
2023-07-01T10:58:27.346Z,13.50
2023-07-01T11:03:37.293Z,13.50
2023-07-01T11:08:46.580Z,12.90
2023-07-01T11:14:07.813Z,11.90
2023-07-01T11:19:17.056Z,13.10
2023-07-01T11:24:24.913Z,11.90
2023-07-01T11:29:27.853Z,13.00
2023-07-01T11:34:31.291Z,13.60
2023-07-01T11:39:44.497Z,14.40
2023-07-01T11:44:47.573Z,13.80
2023-07-01T11:49:51.127Z,12.70
2023-07-01T11:54:56.035Z,13.30
2023-07-01T12:00:00.374Z,13.40
2023-07-01T12:05:05.211Z,14.20
2023-07-01T12:10:19.028Z,14.50
2023-07-01T12:15:22.651Z,13.80
2023-07-01T12:20:25.637Z,14.10
2023-07-01T12:25:30.331Z,13.80
2023-07-01T12:30:33.156Z,12.70
2023-07-01T12:35:36.077Z,12.10
2023-07-01T12:40:39.258Z,13.40
2023-07-01T12:45:42.151Z,13.50
2023-07-01T12:50:45.224Z,13.60
2023-07-01T12:55:51.268Z,12.70
2023-07-01T13:01:05.447Z,12.20
2023-07-01T13:06:31.139Z,15.20
2023-07-01T13:11:37.778Z,13.10
2023-07-01T13:16:43.921Z,12.90
2023-07-01T13:21:49.405Z,13.50
2023-07-01T13:26:57.020Z,13.60
2023-07-01T13:32:05.377Z,13.70
2023-07-01T13:37:11.978Z,13.40
2023-07-01T13:42:22.927Z,13.00
2023-07-01T13:47:48.778Z,13.80
2023-07-01T13:53:01.118Z,13.70
2023-07-01T13:58:06.479Z,14.10
2023-07-01T14:03:15.666Z,13.70
2023-07-01T14:08:23.628Z,13.10
2023-07-01T14:13:30.146Z,13.60
2023-07-01T14:18:33.258Z,13.10
2023-07-01T14:23:39.565Z,13.30
2023-07-01T14:28:42.967Z,13.50
2023-07-01T14:33:58.628Z,12.80
2023-07-01T14:39:05.486Z,13.50
2023-07-01T14:44:21.028Z,13.30
2023-07-01T14:49:24.366Z,13.30
2023-07-01T14:54:27.525Z,14.40
2023-07-01T14:59:30.579Z,14.00
2023-07-01T15:04:36.097Z,13.90
2023-07-01T15:09:38.979Z,14.00
2023-07-01T15:14:41.813Z,13.80
2023-07-01T15:19:44.654Z,13.10
2023-07-01T15:24:47.514Z,13.80
2023-07-01T15:29:50.342Z,14.20
2023-07-01T15:34:53.200Z,13.20
2023-07-01T15:39:58.193Z,13.90
2023-07-01T15:45:01.148Z,14.10
2023-07-01T15:50:04.965Z,16.10
2023-07-01T15:55:09.128Z,14.30
2023-07-01T16:00:13.231Z,15.50
2023-07-01T16:05:25.016Z,16.50
2023-07-01T16:10:32.466Z,14.50
2023-07-01T16:16:04.735Z,14.50
2023-07-01T16:21:08.285Z,14.70
2023-07-01T16:26:14.188Z,30.60
2023-07-01T16:31:24.934Z,14.90
2023-07-01T16:36:32.729Z,15.20
2023-07-01T16:41:35.733Z,14.60
2023-07-01T16:46:40.356Z,14.90
2023-07-01T16:51:45.323Z,14.70
2023-07-01T16:56:57.863Z,17.00
2023-07-01T17:02:00.980Z,16.40
2023-07-01T17:07:06.554Z,17.10
2023-07-01T17:12:11.020Z,19.70
2023-07-01T17:17:29.212Z,20.40
2023-07-01T17:22:33.672Z,18.20
2023-07-01T17:27:36.551Z,17.00
2023-07-01T17:32:39.431Z,17.00
2023-07-01T17:37:51.322Z,17.20
2023-07-01T17:42:54.641Z,16.30
2023-07-01T17:47:59.458Z,16.50
2023-07-01T17:53:02.342Z,16.40
2023-07-01T17:58:05.388Z,17.50
2023-07-01T18:03:08.488Z,17.30
2023-07-01T18:08:12.119Z,18.70
2023-07-01T18:13:15.079Z,17.30
2023-07-01T18:18:18.160Z,17.80
2023-07-01T18:23:21.754Z,18.30
2023-07-01T18:28:28.445Z,17.50
2023-07-01T18:33:31.669Z,17.90
2023-07-01T18:38:34.571Z,17.30
2023-07-01T18:43:41.556Z,18.50
2023-07-01T18:48:44.473Z,18.00
2023-07-01T18:53:47.364Z,19.70
2023-07-01T18:58:50.247Z,17.60
2023-07-01T19:03:53.176Z,17.20
2023-07-01T19:08:56.041Z,17.60
2023-07-01T19:13:58.872Z,18.70
2023-07-01T19:19:01.704Z,18.90
2023-07-01T19:24:04.715Z,21.20
2023-07-01T19:29:08.428Z,20.00
2023-07-01T19:34:11.461Z,19.00
2023-07-01T19:39:14.490Z,17.50
2023-07-01T19:44:18.391Z,18.70
2023-07-01T19:49:21.320Z,19.30
2023-07-01T19:54:25.975Z,20.40
2023-07-01T19:59:32.033Z,20.10
2023-07-01T20:04:37.779Z,20.10
2023-07-01T20:09:41.064Z,20.00
2023-07-01T20:14:44.659Z,20.40
2023-07-01T20:19:54.704Z,19.00
2023-07-01T20:24:59.969Z,20.50
2023-07-01T20:30:03.249Z,21.20
2023-07-01T20:35:08.939Z,21.60
2023-07-01T20:40:12.655Z,22.00
2023-07-01T20:45:15.844Z,21.50
2023-07-01T20:50:18.830Z,21.60
2023-07-01T20:55:24.574Z,22.40
2023-07-01T21:00:27.477Z,21.10
2023-07-01T21:05:33.919Z,21.10
2023-07-01T21:10:36.928Z,21.40
2023-07-01T21:15:45.242Z,21.80
2023-07-01T21:20:48.301Z,22.40
2023-07-01T21:25:53.664Z,23.60
2023-07-01T21:30:56.499Z,23.90
2023-07-01T21:35:59.403Z,23.70
2023-07-01T21:41:02.393Z,25.40
2023-07-01T21:46:10.618Z,25.70
2023-07-01T21:51:13.849Z,24.70
2023-07-01T21:56:22.052Z,23.80
2023-07-01T22:01:34.280Z,23.80
2023-07-01T22:06:43.685Z,22.50
2023-07-01T22:11:46.591Z,25.50
2023-07-01T22:17:17.293Z,27.10
2023-07-01T22:22:20.338Z,26.20
2023-07-01T22:27:26.403Z,28.00
2023-07-01T22:32:29.397Z,25.70
2023-07-01T22:37:32.352Z,24.90
2023-07-01T22:42:35.676Z,26.80
2023-07-01T22:47:38.676Z,25.50
2023-07-01T22:52:43.186Z,25.30
2023-07-01T22:57:48.658Z,26.50
2023-07-01T23:02:51.709Z,24.80
2023-07-01T23:07:54.836Z,24.90
2023-07-01T23:12:57.861Z,27.00
2023-07-01T23:18:00.851Z,27.00
2023-07-01T23:23:04.172Z,26.10
2023-07-01T23:28:11.408Z,25.70
2023-07-01T23:33:14.647Z,26.60
2023-07-01T23:38:17.733Z,25.60
2023-07-01T23:43:20.699Z,26.60
2023-07-01T23:53:26.623Z,27.60
2023-07-01T23:58:29.610Z,27.60
